sensor_id;sensor_type;location;lat;lon;timestamp;P1;durP1;ratioP1;P2;durP2;ratioP2
14316;SDS011;7242;50.858;6.586;2023-08-01T00:02:04;0.20;;;0.10;;
14316;SDS011;7242;50.858;6.586;2023-08-01T00:05:04;1.37;;;0.20;;
14316;SDS011;7242;50.858;6.586;2023-08-01T00:08:05;0.33;;;0.20;;
14316;SDS011;7242;50.858;6.586;2023-08-01T00:11:06;0.33;;;0.17;;
14316;SDS011;7242;50.858;6.586;2023-08-01T00:14:07;0.10;;;0.10;;
14316;SDS011;7242;50.858;6.586;2023-08-01T00:17:08;0.60;;;0.10;;
14316;SDS011;7242;50.858;6.586;2023-08-01T00:20:09;0.10;;;0.10;;
14316;SDS011;7242;50.858;6.586;2023-08-01T00:23:10;1.57;;;0.10;;
14316;SDS011;7242;50.858;6.586;2023-08-01T00:26:10;0.33;;;0.10;;
14316;SDS011;7242;50.858;6.586;2023-08-01T00:29:11;0.10;;;0.10;;
14316;SDS011;7242;50.858;6.586;2023-08-01T00:32:12;0.10;;;0.10;;
14316;SDS011;7242;50.858;6.586;2023-08-01T00:35:13;0.30;;;0.17;;
14316;SDS011;7242;50.858;6.586;2023-08-01T00:38:14;0.10;;;0.10;;
14316;SDS011;7242;50.858;6.586;2023-08-01T00:41:14;2.20;;;0.20;;
14316;SDS011;7242;50.858;6.586;2023-08-01T00:44:15;0.90;;;0.20;;
14316;SDS011;7242;50.858;6.586;2023-08-01T00:47:16;0.13;;;0.13;;
14316;SDS011;7242;50.858;6.586;2023-08-01T00:50:17;1.67;;;0.20;;
14316;SDS011;7242;50.858;6.586;2023-08-01T00:53:20;1.70;;;0.20;;
14316;SDS011;7242;50.858;6.586;2023-08-01T00:56:21;0.30;;;0.20;;
14316;SDS011;7242;50.858;6.586;2023-08-01T00:59:22;2.03;;;0.20;;
14316;SDS011;7242;50.858;6.586;2023-08-01T01:02:23;1.30;;;0.20;;
14316;SDS011;7242;50.858;6.586;2023-08-01T01:05:24;0.10;;;0.10;;
14316;SDS011;7242;50.858;6.586;2023-08-01T01:08:27;1.70;;;0.20;;
14316;SDS011;7242;50.858;6.586;2023-08-01T01:11:28;0.20;;;0.20;;
14316;SDS011;7242;50.858;6.586;2023-08-01T01:14:29;0.93;;;0.30;;
14316;SDS011;7242;50.858;6.586;2023-08-01T01:17:30;0.30;;;0.30;;
14316;SDS011;7242;50.858;6.586;2023-08-01T01:20:33;0.20;;;0.20;;
14316;SDS011;7242;50.858;6.586;2023-08-01T01:23:35;0.67;;;0.30;;
14316;SDS011;7242;50.858;6.586;2023-08-01T01:26:37;1.53;;;0.30;;
14316;SDS011;7242;50.858;6.586;2023-08-01T01:29:40;0.67;;;0.40;;
14316;SDS011;7242;50.858;6.586;2023-08-01T01:32:42;1.83;;;0.47;;
14316;SDS011;7242;50.858;6.586;2023-08-01T01:35:43;1.07;;;0.50;;
14316;SDS011;7242;50.858;6.586;2023-08-01T01:38:44;0.40;;;0.40;;
14316;SDS011;7242;50.858;6.586;2023-08-01T01:41:45;0.90;;;0.47;;
14316;SDS011;7242;50.858;6.586;2023-08-01T01:44:45;0.40;;;0.30;;
14316;SDS011;7242;50.858;6.586;2023-08-01T01:47:46;0.30;;;0.30;;
14316;SDS011;7242;50.858;6.586;2023-08-01T01:50:47;0.50;;;0.50;;
14316;SDS011;7242;50.858;6.586;2023-08-01T01:53:48;0.50;;;0.50;;
14316;SDS011;7242;50.858;6.586;2023-08-01T01:56:49;0.43;;;0.43;;
14316;SDS011;7242;50.858;6.586;2023-08-01T01:59:49;2.20;;;0.60;;
14316;SDS011;7242;50.858;6.586;2023-08-01T02:02:50;0.80;;;0.50;;
14316;SDS011;7242;50.858;6.586;2023-08-01T02:05:51;0.80;;;0.50;;
14316;SDS011;7242;50.858;6.586;2023-08-01T02:08:54;0.50;;;0.50;;
14316;SDS011;7242;50.858;6.586;2023-08-01T02:11:56;0.83;;;0.60;;
14316;SDS011;7242;50.858;6.586;2023-08-01T02:14:57;1.60;;;0.60;;
14316;SDS011;7242;50.858;6.586;2023-08-01T02:17:58;1.30;;;0.53;;
14316;SDS011;7242;50.858;6.586;2023-08-01T02:20:59;1.00;;;0.70;;
14316;SDS011;7242;50.858;6.586;2023-08-01T02:24:00;3.93;;;0.80;;
14316;SDS011;7242;50.858;6.586;2023-08-01T02:27:02;1.73;;;0.83;;
14316;SDS011;7242;50.858;6.586;2023-08-01T02:30:02;1.73;;;0.80;;
14316;SDS011;7242;50.858;6.586;2023-08-01T02:33:05;1.43;;;0.73;;
14316;SDS011;7242;50.858;6.586;2023-08-01T02:36:06;0.80;;;0.70;;
14316;SDS011;7242;50.858;6.586;2023-08-01T02:39:06;1.73;;;0.87;;
14316;SDS011;7242;50.858;6.586;2023-08-01T02:42:07;1.53;;;1.10;;
14316;SDS011;7242;50.858;6.586;2023-08-01T02:45:08;4.40;;;1.30;;
14316;SDS011;7242;50.858;6.586;2023-08-01T02:48:09;2.47;;;1.60;;
14316;SDS011;7242;50.858;6.586;2023-08-01T02:51:10;1.83;;;1.30;;
14316;SDS011;7242;50.858;6.586;2023-08-01T02:54:10;1.03;;;0.90;;
14316;SDS011;7242;50.858;6.586;2023-08-01T02:57:11;1.23;;;1.13;;
14316;SDS011;7242;50.858;6.586;2023-08-01T03:00:12;1.53;;;1.20;;
14316;SDS011;7242;50.858;6.586;2023-08-01T03:03:14;1.60;;;1.23;;
14316;SDS011;7242;50.858;6.586;2023-08-01T03:06:16;4.37;;;1.57;;
14316;SDS011;7242;50.858;6.586;2023-08-01T03:09:16;2.40;;;1.57;;
14316;SDS011;7242;50.858;6.586;2023-08-01T03:12:17;2.50;;;1.73;;
14316;SDS011;7242;50.858;6.586;2023-08-01T03:15:17;2.10;;;1.73;;
14316;SDS011;7242;50.858;6.586;2023-08-01T03:18:18;3.60;;;1.80;;
14316;SDS011;7242;50.858;6.586;2023-08-01T03:21:19;2.53;;;1.70;;
14316;SDS011;7242;50.858;6.586;2023-08-01T03:24:20;5.13;;;1.80;;
14316;SDS011;7242;50.858;6.586;2023-08-01T03:27:21;4.67;;;1.80;;
14316;SDS011;7242;50.858;6.586;2023-08-01T03:30:21;3.13;;;2.03;;
14316;SDS011;7242;50.858;6.586;2023-08-01T03:33:22;3.47;;;2.30;;
14316;SDS011;7242;50.858;6.586;2023-08-01T03:36:24;3.90;;;2.20;;
14316;SDS011;7242;50.858;6.586;2023-08-01T03:39:25;3.83;;;2.20;;
14316;SDS011;7242;50.858;6.586;2023-08-01T03:42:26;3.80;;;2.40;;
14316;SDS011;7242;50.858;6.586;2023-08-01T03:45:26;5.13;;;2.40;;
14316;SDS011;7242;50.858;6.586;2023-08-01T03:48:27;3.67;;;3.00;;
14316;SDS011;7242;50.858;6.586;2023-08-01T03:51:28;4.57;;;3.13;;
14316;SDS011;7242;50.858;6.586;2023-08-01T03:54:28;4.57;;;3.50;;
14316;SDS011;7242;50.858;6.586;2023-08-01T03:57:30;4.20;;;3.00;;
14316;SDS011;7242;50.858;6.586;2023-08-01T04:00:33;4.80;;;3.43;;
14316;SDS011;7242;50.858;6.586;2023-08-01T04:03:34;4.93;;;3.80;;
14316;SDS011;7242;50.858;6.586;2023-08-01T04:06:35;4.77;;;3.70;;
14316;SDS011;7242;50.858;6.586;2023-08-01T04:09:35;4.97;;;3.43;;
14316;SDS011;7242;50.858;6.586;2023-08-01T04:12:38;5.73;;;3.60;;
14316;SDS011;7242;50.858;6.586;2023-08-01T04:15:39;4.87;;;3.60;;
14316;SDS011;7242;50.858;6.586;2023-08-01T04:18:40;6.37;;;3.53;;
14316;SDS011;7242;50.858;6.586;2023-08-01T04:21:41;5.47;;;3.97;;
14316;SDS011;7242;50.858;6.586;2023-08-01T04:24:42;8.13;;;4.50;;
14316;SDS011;7242;50.858;6.586;2023-08-01T04:27:43;6.03;;;4.33;;
14316;SDS011;7242;50.858;6.586;2023-08-01T04:30:48;7.53;;;4.33;;
14316;SDS011;7242;50.858;6.586;2023-08-01T04:33:52;8.20;;;4.63;;
14316;SDS011;7242;50.858;6.586;2023-08-01T04:36:53;9.00;;;4.53;;
14316;SDS011;7242;50.858;6.586;2023-08-01T04:39:54;5.77;;;4.10;;
14316;SDS011;7242;50.858;6.586;2023-08-01T04:42:55;7.10;;;4.17;;
14316;SDS011;7242;50.858;6.586;2023-08-01T04:45:56;6.83;;;4.27;;
14316;SDS011;7242;50.858;6.586;2023-08-01T04:48:57;5.80;;;3.70;;
14316;SDS011;7242;50.858;6.586;2023-08-01T04:51:58;5.27;;;3.47;;
14316;SDS011;7242;50.858;6.586;2023-08-01T04:55:00;6.10;;;3.77;;
14316;SDS011;7242;50.858;6.586;2023-08-01T04:58:01;7.27;;;4.30;;
14316;SDS011;7242;50.858;6.586;2023-08-01T05:01:02;9.50;;;4.63;;
14316;SDS011;7242;50.858;6.586;2023-08-01T05:04:03;6.90;;;4.20;;
14316;SDS011;7242;50.858;6.586;2023-08-01T05:07:04;6.97;;;4.37;;
14316;SDS011;7242;50.858;6.586;2023-08-01T05:10:06;6.47;;;3.80;;
14316;SDS011;7242;50.858;6.586;2023-08-01T05:13:07;5.77;;;3.77;;
14316;SDS011;7242;50.858;6.586;2023-08-01T05:16:08;7.13;;;3.47;;
14316;SDS011;7242;50.858;6.586;2023-08-01T05:19:08;5.50;;;3.57;;
14316;SDS011;7242;50.858;6.586;2023-08-01T05:22:09;6.20;;;3.10;;
14316;SDS011;7242;50.858;6.586;2023-08-01T05:25:10;5.20;;;3.10;;
14316;SDS011;7242;50.858;6.586;2023-08-01T05:28:11;5.33;;;3.43;;
14316;SDS011;7242;50.858;6.586;2023-08-01T05:31:12;7.73;;;3.53;;
14316;SDS011;7242;50.858;6.586;2023-08-01T05:34:13;6.13;;;3.87;;
14316;SDS011;7242;50.858;6.586;2023-08-01T05:37:13;6.93;;;3.80;;
14316;SDS011;7242;50.858;6.586;2023-08-01T05:40:14;5.70;;;3.10;;
14316;SDS011;7242;50.858;6.586;2023-08-01T05:43:15;4.90;;;3.30;;
14316;SDS011;7242;50.858;6.586;2023-08-01T05:46:16;6.80;;;3.30;;
14316;SDS011;7242;50.858;6.586;2023-08-01T05:49:17;6.87;;;3.30;;
14316;SDS011;7242;50.858;6.586;2023-08-01T05:52:18;5.97;;;3.97;;
14316;SDS011;7242;50.858;6.586;2023-08-01T05:55:19;6.30;;;3.50;;
14316;SDS011;7242;50.858;6.586;2023-08-01T05:58:21;6.80;;;3.70;;
14316;SDS011;7242;50.858;6.586;2023-08-01T06:01:21;5.07;;;3.77;;
14316;SDS011;7242;50.858;6.586;2023-08-01T06:04:22;7.73;;;4.50;;
14316;SDS011;7242;50.858;6.586;2023-08-01T06:07:23;11.03;;;4.37;;
14316;SDS011;7242;50.858;6.586;2023-08-01T06:10:24;10.03;;;3.77;;
14316;SDS011;7242;50.858;6.586;2023-08-01T06:13:25;7.27;;;4.20;;
14316;SDS011;7242;50.858;6.586;2023-08-01T06:16:26;6.50;;;3.87;;
14316;SDS011;7242;50.858;6.586;2023-08-01T06:19:27;5.30;;;3.47;;
14316;SDS011;7242;50.858;6.586;2023-08-01T06:22:28;7.37;;;3.67;;
14316;SDS011;7242;50.858;6.586;2023-08-01T06:25:28;6.33;;;3.70;;
14316;SDS011;7242;50.858;6.586;2023-08-01T06:28:29;6.53;;;3.90;;
14316;SDS011;7242;50.858;6.586;2023-08-01T06:31:31;9.20;;;4.23;;
14316;SDS011;7242;50.858;6.586;2023-08-01T06:34:32;5.80;;;3.77;;
14316;SDS011;7242;50.858;6.586;2023-08-01T06:37:32;7.93;;;4.37;;
14316;SDS011;7242;50.858;6.586;2023-08-01T06:40:33;8.17;;;4.40;;
14316;SDS011;7242;50.858;6.586;2023-08-01T06:43:34;7.60;;;4.70;;
14316;SDS011;7242;50.858;6.586;2023-08-01T06:46:38;12.57;;;4.90;;
14316;SDS011;7242;50.858;6.586;2023-08-01T06:49:38;8.23;;;4.33;;
14316;SDS011;7242;50.858;6.586;2023-08-01T06:52:40;7.87;;;4.50;;
14316;SDS011;7242;50.858;6.586;2023-08-01T06:55:41;9.77;;;4.53;;
14316;SDS011;7242;50.858;6.586;2023-08-01T06:58:42;6.87;;;4.60;;
14316;SDS011;7242;50.858;6.586;2023-08-01T07:01:43;7.17;;;4.00;;
14316;SDS011;7242;50.858;6.586;2023-08-01T07:04:44;7.23;;;4.30;;
14316;SDS011;7242;50.858;6.586;2023-08-01T07:07:45;5.17;;;3.87;;
14316;SDS011;7242;50.858;6.586;2023-08-01T07:10:46;6.13;;;3.60;;
14316;SDS011;7242;50.858;6.586;2023-08-01T07:13:47;5.53;;;3.30;;
14316;SDS011;7242;50.858;6.586;2023-08-01T07:16:47;5.87;;;3.80;;
14316;SDS011;7242;50.858;6.586;2023-08-01T07:19:49;6.43;;;3.47;;
14316;SDS011;7242;50.858;6.586;2023-08-01T07:22:49;6.13;;;3.40;;
14316;SDS011;7242;50.858;6.586;2023-08-01T07:25:50;7.73;;;3.67;;
14316;SDS011;7242;50.858;6.586;2023-08-01T07:28:51;7.33;;;3.40;;
14316;SDS011;7242;50.858;6.586;2023-08-01T07:31:52;5.50;;;3.67;;
14316;SDS011;7242;50.858;6.586;2023-08-01T07:34:52;4.80;;;3.40;;
14316;SDS011;7242;50.858;6.586;2023-08-01T07:37:53;6.57;;;3.20;;
14316;SDS011;7242;50.858;6.586;2023-08-01T07:40:54;8.43;;;3.87;;
14316;SDS011;7242;50.858;6.586;2023-08-01T07:43:55;9.10;;;4.40;;
14316;SDS011;7242;50.858;6.586;2023-08-01T07:46:56;8.43;;;3.80;;
14316;SDS011;7242;50.858;6.586;2023-08-01T07:49:57;7.33;;;3.70;;
14316;SDS011;7242;50.858;6.586;2023-08-01T07:52:58;7.37;;;3.53;;
14316;SDS011;7242;50.858;6.586;2023-08-01T07:55:59;5.77;;;3.70;;
14316;SDS011;7242;50.858;6.586;2023-08-01T07:59:02;6.77;;;3.33;;
14316;SDS011;7242;50.858;6.586;2023-08-01T08:02:02;6.90;;;3.70;;
14316;SDS011;7242;50.858;6.586;2023-08-01T08:05:03;5.23;;;2.87;;
14316;SDS011;7242;50.858;6.586;2023-08-01T08:08:05;6.57;;;3.00;;
14316;SDS011;7242;50.858;6.586;2023-08-01T08:11:06;6.93;;;3.27;;
14316;SDS011;7242;50.858;6.586;2023-08-01T08:14:07;6.20;;;3.47;;
14316;SDS011;7242;50.858;6.586;2023-08-01T08:17:07;5.17;;;3.00;;
14316;SDS011;7242;50.858;6.586;2023-08-01T08:20:08;6.57;;;3.40;;
14316;SDS011;7242;50.858;6.586;2023-08-01T08:23:09;6.93;;;3.10;;
14316;SDS011;7242;50.858;6.586;2023-08-01T08:26:10;5.77;;;3.03;;
14316;SDS011;7242;50.858;6.586;2023-08-01T08:29:11;5.73;;;3.00;;
14316;SDS011;7242;50.858;6.586;2023-08-01T08:32:12;6.67;;;2.90;;
14316;SDS011;7242;50.858;6.586;2023-08-01T08:35:12;4.70;;;2.70;;
14316;SDS011;7242;50.858;6.586;2023-08-01T08:38:13;5.63;;;2.77;;
14316;SDS011;7242;50.858;6.586;2023-08-01T08:41:14;6.50;;;3.20;;
14316;SDS011;7242;50.858;6.586;2023-08-01T08:44:20;6.87;;;3.03;;
14316;SDS011;7242;50.858;6.586;2023-08-01T08:47:22;4.93;;;3.17;;
14316;SDS011;7242;50.858;6.586;2023-08-01T08:50:25;4.83;;;2.70;;
14316;SDS011;7242;50.858;6.586;2023-08-01T08:53:27;5.07;;;2.83;;
14316;SDS011;7242;50.858;6.586;2023-08-01T08:56:28;6.73;;;2.80;;
14316;SDS011;7242;50.858;6.586;2023-08-01T08:59:29;4.90;;;2.90;;
14316;SDS011;7242;50.858;6.586;2023-08-01T09:02:31;6.87;;;2.87;;
14316;SDS011;7242;50.858;6.586;2023-08-01T09:05:52;5.03;;;2.70;;
14316;SDS011;7242;50.858;6.586;2023-08-01T09:09:10;6.80;;;2.93;;
14316;SDS011;7242;50.858;6.586;2023-08-01T09:12:12;5.70;;;2.80;;
14316;SDS011;7242;50.858;6.586;2023-08-01T09:15:13;4.40;;;2.67;;
14316;SDS011;7242;50.858;6.586;2023-08-01T09:18:14;6.17;;;3.10;;
14316;SDS011;7242;50.858;6.586;2023-08-01T09:21:17;4.43;;;2.50;;
14316;SDS011;7242;50.858;6.586;2023-08-01T09:24:19;7.33;;;3.03;;
14316;SDS011;7242;50.858;6.586;2023-08-01T09:27:21;4.10;;;2.63;;
14316;SDS011;7242;50.858;6.586;2023-08-01T09:30:25;6.17;;;2.80;;
14316;SDS011;7242;50.858;6.586;2023-08-01T09:33:26;5.87;;;2.90;;
14316;SDS011;7242;50.858;6.586;2023-08-01T09:36:27;5.93;;;3.07;;
14316;SDS011;7242;50.858;6.586;2023-08-01T09:39:28;5.50;;;2.40;;
14316;SDS011;7242;50.858;6.586;2023-08-01T09:42:37;6.73;;;2.30;;
14316;SDS011;7242;50.858;6.586;2023-08-01T09:45:51;5.47;;;2.60;;
14316;SDS011;7242;50.858;6.586;2023-08-01T09:48:53;5.50;;;2.83;;
14316;SDS011;7242;50.858;6.586;2023-08-01T09:51:54;5.67;;;2.67;;
14316;SDS011;7242;50.858;6.586;2023-08-01T09:54:55;3.63;;;2.50;;
14316;SDS011;7242;50.858;6.586;2023-08-01T09:57:56;5.97;;;2.40;;
14316;SDS011;7242;50.858;6.586;2023-08-01T10:00:59;6.07;;;2.80;;
14316;SDS011;7242;50.858;6.586;2023-08-01T10:04:01;10.20;;;2.83;;
14316;SDS011;7242;50.858;6.586;2023-08-01T10:07:06;5.90;;;2.67;;
14316;SDS011;7242;50.858;6.586;2023-08-01T10:10:08;4.63;;;2.37;;
14316;SDS011;7242;50.858;6.586;2023-08-01T10:13:10;7.80;;;2.70;;
14316;SDS011;7242;50.858;6.586;2023-08-01T10:16:14;6.20;;;2.60;;
14316;SDS011;7242;50.858;6.586;2023-08-01T10:19:15;6.00;;;2.60;;
14316;SDS011;7242;50.858;6.586;2023-08-01T10:22:18;4.63;;;2.33;;
14316;SDS011;7242;50.858;6.586;2023-08-01T10:25:20;5.00;;;2.87;;
14316;SDS011;7242;50.858;6.586;2023-08-01T10:28:34;4.33;;;2.50;;
14316;SDS011;7242;50.858;6.586;2023-08-01T10:31:39;4.13;;;2.27;;
14316;SDS011;7242;50.858;6.586;2023-08-01T10:34:54;4.53;;;2.40;;
14316;SDS011;7242;50.858;6.586;2023-08-01T10:38:03;6.37;;;2.30;;
14316;SDS011;7242;50.858;6.586;2023-08-01T10:41:29;4.47;;;2.33;;
14316;SDS011;7242;50.858;6.586;2023-08-01T10:44:31;5.53;;;2.20;;
14316;SDS011;7242;50.858;6.586;2023-08-01T10:47:34;5.10;;;2.07;;
14316;SDS011;7242;50.858;6.586;2023-08-01T10:50:35;4.03;;;1.77;;
14316;SDS011;7242;50.858;6.586;2023-08-01T10:53:39;3.63;;;1.80;;
14316;SDS011;7242;50.858;6.586;2023-08-01T10:56:43;3.23;;;1.77;;
14316;SDS011;7242;50.858;6.586;2023-08-01T10:59:45;5.27;;;2.07;;
14316;SDS011;7242;50.858;6.586;2023-08-01T11:02:49;4.53;;;2.00;;
14316;SDS011;7242;50.858;6.586;2023-08-01T11:05:57;4.97;;;2.00;;
14316;SDS011;7242;50.858;6.586;2023-08-01T11:08:57;5.60;;;1.93;;
14316;SDS011;7242;50.858;6.586;2023-08-01T11:11:59;4.07;;;2.00;;
14316;SDS011;7242;50.858;6.586;2023-08-01T11:15:01;4.67;;;2.33;;
14316;SDS011;7242;50.858;6.586;2023-08-01T11:18:03;6.87;;;1.83;;
14316;SDS011;7242;50.858;6.586;2023-08-01T11:21:04;4.60;;;2.07;;
14316;SDS011;7242;50.858;6.586;2023-08-01T11:24:08;5.63;;;2.10;;
14316;SDS011;7242;50.858;6.586;2023-08-01T11:27:09;5.20;;;2.20;;
14316;SDS011;7242;50.858;6.586;2023-08-01T11:30:10;5.67;;;2.50;;
14316;SDS011;7242;50.858;6.586;2023-08-01T11:36:21;6.07;;;2.30;;
14316;SDS011;7242;50.858;6.586;2023-08-01T11:39:25;4.60;;;2.33;;
14316;SDS011;7242;50.858;6.586;2023-08-01T11:42:29;5.47;;;2.37;;
14316;SDS011;7242;50.858;6.586;2023-08-01T11:45:32;5.20;;;2.20;;
14316;SDS011;7242;50.858;6.586;2023-08-01T11:48:32;4.50;;;2.03;;
14316;SDS011;7242;50.858;6.586;2023-08-01T11:51:40;6.73;;;2.13;;
14316;SDS011;7242;50.858;6.586;2023-08-01T11:54:45;3.60;;;1.80;;
14316;SDS011;7242;50.858;6.586;2023-08-01T11:57:53;3.77;;;1.50;;
14316;SDS011;7242;50.858;6.586;2023-08-01T12:01:27;4.80;;;1.80;;
14316;SDS011;7242;50.858;6.586;2023-08-01T12:04:25;3.40;;;1.67;;
14316;SDS011;7242;50.858;6.586;2023-08-01T12:07:26;3.67;;;1.50;;
14316;SDS011;7242;50.858;6.586;2023-08-01T12:10:36;4.40;;;2.00;;
14316;SDS011;7242;50.858;6.586;2023-08-01T12:13:47;4.80;;;1.83;;
14316;SDS011;7242;50.858;6.586;2023-08-01T12:16:59;2.97;;;1.80;;
14316;SDS011;7242;50.858;6.586;2023-08-01T12:20:00;5.23;;;1.90;;
14316;SDS011;7242;50.858;6.586;2023-08-01T12:23:00;3.83;;;1.70;;
14316;SDS011;7242;50.858;6.586;2023-08-01T12:26:02;4.17;;;1.73;;
14316;SDS011;7242;50.858;6.586;2023-08-01T12:29:02;4.70;;;1.70;;
14316;SDS011;7242;50.858;6.586;2023-08-01T12:32:04;2.07;;;1.50;;
14316;SDS011;7242;50.858;6.586;2023-08-01T12:35:06;3.63;;;1.80;;
14316;SDS011;7242;50.858;6.586;2023-08-01T12:38:07;3.03;;;1.50;;
14316;SDS011;7242;50.858;6.586;2023-08-01T12:41:08;2.73;;;1.30;;
14316;SDS011;7242;50.858;6.586;2023-08-01T12:44:09;3.63;;;1.53;;
14316;SDS011;7242;50.858;6.586;2023-08-01T12:47:10;2.73;;;1.30;;
14316;SDS011;7242;50.858;6.586;2023-08-01T12:50:11;2.60;;;1.60;;
14316;SDS011;7242;50.858;6.586;2023-08-01T12:53:12;3.83;;;1.50;;
14316;SDS011;7242;50.858;6.586;2023-08-01T12:56:13;3.50;;;2.07;;
14316;SDS011;7242;50.858;6.586;2023-08-01T12:59:14;4.30;;;2.30;;
14316;SDS011;7242;50.858;6.586;2023-08-01T13:02:15;3.53;;;1.47;;
14316;SDS011;7242;50.858;6.586;2023-08-01T13:05:16;1.80;;;1.20;;
14316;SDS011;7242;50.858;6.586;2023-08-01T13:08:17;3.07;;;1.40;;
14316;SDS011;7242;50.858;6.586;2023-08-01T13:11:18;2.20;;;1.20;;
14316;SDS011;7242;50.858;6.586;2023-08-01T13:14:19;3.10;;;1.60;;
14316;SDS011;7242;50.858;6.586;2023-08-01T13:17:19;3.83;;;1.60;;
14316;SDS011;7242;50.858;6.586;2023-08-01T13:20:21;2.10;;;1.40;;
14316;SDS011;7242;50.858;6.586;2023-08-01T13:23:22;3.07;;;1.40;;
14316;SDS011;7242;50.858;6.586;2023-08-01T13:26:22;5.13;;;1.63;;
14316;SDS011;7242;50.858;6.586;2023-08-01T13:29:23;2.60;;;1.70;;
14316;SDS011;7242;50.858;6.586;2023-08-01T13:32:24;3.03;;;1.77;;
14316;SDS011;7242;50.858;6.586;2023-08-01T13:35:25;4.43;;;1.97;;
14316;SDS011;7242;50.858;6.586;2023-08-01T13:38:26;5.33;;;2.00;;
14316;SDS011;7242;50.858;6.586;2023-08-01T13:41:27;4.40;;;1.67;;
14316;SDS011;7242;50.858;6.586;2023-08-01T13:44:28;3.63;;;1.67;;
14316;SDS011;7242;50.858;6.586;2023-08-01T13:47:28;5.13;;;1.67;;
14316;SDS011;7242;50.858;6.586;2023-08-01T13:50:29;2.37;;;1.50;;
14316;SDS011;7242;50.858;6.586;2023-08-01T13:53:31;4.00;;;1.50;;
14316;SDS011;7242;50.858;6.586;2023-08-01T13:56:32;4.20;;;1.70;;
14316;SDS011;7242;50.858;6.586;2023-08-01T13:59:33;3.30;;;1.80;;
14316;SDS011;7242;50.858;6.586;2023-08-01T14:02:35;4.40;;;2.20;;
14316;SDS011;7242;50.858;6.586;2023-08-01T14:05:35;6.33;;;2.13;;
14316;SDS011;7242;50.858;6.586;2023-08-01T14:08:36;7.10;;;1.90;;
14316;SDS011;7242;50.858;6.586;2023-08-01T14:11:38;5.47;;;2.10;;
14316;SDS011;7242;50.858;6.586;2023-08-01T14:14:39;4.50;;;2.00;;
14316;SDS011;7242;50.858;6.586;2023-08-01T14:17:40;4.57;;;1.90;;
14316;SDS011;7242;50.858;6.586;2023-08-01T14:20:41;4.60;;;1.80;;
14316;SDS011;7242;50.858;6.586;2023-08-01T14:23:42;4.00;;;1.73;;
14316;SDS011;7242;50.858;6.586;2023-08-01T14:26:43;5.70;;;2.20;;
14316;SDS011;7242;50.858;6.586;2023-08-01T14:29:44;4.13;;;1.90;;
14316;SDS011;7242;50.858;6.586;2023-08-01T14:32:45;4.03;;;1.70;;
14316;SDS011;7242;50.858;6.586;2023-08-01T14:35:45;3.87;;;1.80;;
14316;SDS011;7242;50.858;6.586;2023-08-01T14:38:46;3.53;;;1.73;;
14316;SDS011;7242;50.858;6.586;2023-08-01T14:41:54;6.17;;;1.67;;
14316;SDS011;7242;50.858;6.586;2023-08-01T14:44:55;4.17;;;1.60;;
14316;SDS011;7242;50.858;6.586;2023-08-01T14:47:57;5.63;;;1.83;;
14316;SDS011;7242;50.858;6.586;2023-08-01T14:50:57;3.93;;;1.70;;
14316;SDS011;7242;50.858;6.586;2023-08-01T14:53:58;3.00;;;1.40;;
14316;SDS011;7242;50.858;6.586;2023-08-01T14:56:59;4.23;;;1.90;;
14316;SDS011;7242;50.858;6.586;2023-08-01T15:00:00;1.50;;;1.20;;
14316;SDS011;7242;50.858;6.586;2023-08-01T15:03:01;3.17;;;1.40;;
14316;SDS011;7242;50.858;6.586;2023-08-01T15:06:05;5.60;;;1.50;;
14316;SDS011;7242;50.858;6.586;2023-08-01T15:09:09;3.37;;;1.73;;
14316;SDS011;7242;50.858;6.586;2023-08-01T15:12:10;2.67;;;1.60;;
14316;SDS011;7242;50.858;6.586;2023-08-01T15:15:11;2.83;;;1.73;;
14316;SDS011;7242;50.858;6.586;2023-08-01T15:18:12;5.53;;;1.80;;
14316;SDS011;7242;50.858;6.586;2023-08-01T15:21:13;6.40;;;1.97;;
14316;SDS011;7242;50.858;6.586;2023-08-01T15:24:14;3.77;;;1.70;;
14316;SDS011;7242;50.858;6.586;2023-08-01T15:27:15;3.10;;;1.80;;
14316;SDS011;7242;50.858;6.586;2023-08-01T15:30:15;3.10;;;1.70;;
14316;SDS011;7242;50.858;6.586;2023-08-01T15:33:16;3.90;;;1.63;;
14316;SDS011;7242;50.858;6.586;2023-08-01T15:36:17;3.37;;;1.50;;
14316;SDS011;7242;50.858;6.586;2023-08-01T15:39:27;2.57;;;1.27;;
14316;SDS011;7242;50.858;6.586;2023-08-01T15:42:28;3.53;;;1.70;;
14316;SDS011;7242;50.858;6.586;2023-08-01T15:45:29;1.63;;;1.17;;
14316;SDS011;7242;50.858;6.586;2023-08-01T15:48:31;2.57;;;1.40;;
14316;SDS011;7242;50.858;6.586;2023-08-01T15:51:33;2.63;;;1.40;;
14316;SDS011;7242;50.858;6.586;2023-08-01T15:54:34;4.27;;;1.50;;
14316;SDS011;7242;50.858;6.586;2023-08-01T15:57:35;2.03;;;1.20;;
14316;SDS011;7242;50.858;6.586;2023-08-01T16:00:35;3.70;;;1.60;;
14316;SDS011;7242;50.858;6.586;2023-08-01T16:03:39;4.63;;;1.50;;
14316;SDS011;7242;50.858;6.586;2023-08-01T16:06:40;3.00;;;1.53;;
14316;SDS011;7242;50.858;6.586;2023-08-01T16:09:41;5.70;;;1.93;;
14316;SDS011;7242;50.858;6.586;2023-08-01T16:12:42;3.23;;;1.70;;
14316;SDS011;7242;50.858;6.586;2023-08-01T16:15:44;4.40;;;1.50;;
14316;SDS011;7242;50.858;6.586;2023-08-01T16:18:45;3.87;;;1.80;;
14316;SDS011;7242;50.858;6.586;2023-08-01T16:21:46;4.67;;;1.70;;
14316;SDS011;7242;50.858;6.586;2023-08-01T16:24:47;3.33;;;1.70;;
14316;SDS011;7242;50.858;6.586;2023-08-01T16:27:48;5.23;;;1.83;;
14316;SDS011;7242;50.858;6.586;2023-08-01T16:30:50;3.63;;;1.83;;
14316;SDS011;7242;50.858;6.586;2023-08-01T16:33:50;4.90;;;1.90;;
14316;SDS011;7242;50.858;6.586;2023-08-01T16:36:51;3.97;;;1.70;;
14316;SDS011;7242;50.858;6.586;2023-08-01T16:39:52;3.40;;;1.67;;
14316;SDS011;7242;50.858;6.586;2023-08-01T16:42:52;3.30;;;1.60;;
14316;SDS011;7242;50.858;6.586;2023-08-01T16:45:53;3.93;;;1.80;;
14316;SDS011;7242;50.858;6.586;2023-08-01T16:48:57;4.67;;;2.07;;
14316;SDS011;7242;50.858;6.586;2023-08-01T16:51:58;4.70;;;1.97;;
14316;SDS011;7242;50.858;6.586;2023-08-01T16:54:59;2.87;;;1.83;;
14316;SDS011;7242;50.858;6.586;2023-08-01T16:58:00;4.60;;;1.90;;
14316;SDS011;7242;50.858;6.586;2023-08-01T17:01:01;5.60;;;2.20;;
14316;SDS011;7242;50.858;6.586;2023-08-01T17:04:02;5.27;;;1.97;;
14316;SDS011;7242;50.858;6.586;2023-08-01T17:07:02;7.67;;;2.50;;
14316;SDS011;7242;50.858;6.586;2023-08-01T17:10:03;4.37;;;1.90;;
14316;SDS011;7242;50.858;6.586;2023-08-01T17:13:04;6.10;;;2.40;;
14316;SDS011;7242;50.858;6.586;2023-08-01T17:16:05;6.10;;;2.20;;
14316;SDS011;7242;50.858;6.586;2023-08-01T17:19:06;5.73;;;2.30;;
14316;SDS011;7242;50.858;6.586;2023-08-01T17:22:07;5.83;;;2.43;;
14316;SDS011;7242;50.858;6.586;2023-08-01T17:25:07;6.40;;;2.30;;
14316;SDS011;7242;50.858;6.586;2023-08-01T17:28:08;6.80;;;2.50;;
14316;SDS011;7242;50.858;6.586;2023-08-01T17:31:09;6.30;;;2.40;;
14316;SDS011;7242;50.858;6.586;2023-08-01T17:34:12;5.53;;;2.30;;
14316;SDS011;7242;50.858;6.586;2023-08-01T17:37:13;6.73;;;2.07;;
14316;SDS011;7242;50.858;6.586;2023-08-01T17:40:15;5.07;;;2.20;;
14316;SDS011;7242;50.858;6.586;2023-08-01T17:43:15;5.00;;;2.20;;
14316;SDS011;7242;50.858;6.586;2023-08-01T17:46:16;4.73;;;2.00;;
14316;SDS011;7242;50.858;6.586;2023-08-01T17:49:19;3.67;;;2.20;;
14316;SDS011;7242;50.858;6.586;2023-08-01T17:52:20;5.77;;;1.90;;
14316;SDS011;7242;50.858;6.586;2023-08-01T17:55:21;7.77;;;2.00;;
14316;SDS011;7242;50.858;6.586;2023-08-01T17:58:21;6.23;;;1.97;;
14316;SDS011;7242;50.858;6.586;2023-08-01T18:01:22;4.57;;;2.00;;
14316;SDS011;7242;50.858;6.586;2023-08-01T18:04:24;5.87;;;2.23;;
14316;SDS011;7242;50.858;6.586;2023-08-01T18:07:25;4.30;;;2.27;;
14316;SDS011;7242;50.858;6.586;2023-08-01T18:10:26;6.97;;;2.30;;
14316;SDS011;7242;50.858;6.586;2023-08-01T18:13:31;5.87;;;2.00;;
14316;SDS011;7242;50.858;6.586;2023-08-01T18:16:31;4.63;;;2.07;;
14316;SDS011;7242;50.858;6.586;2023-08-01T18:19:32;7.13;;;2.13;;
14316;SDS011;7242;50.858;6.586;2023-08-01T18:22:34;3.90;;;1.83;;
14316;SDS011;7242;50.858;6.586;2023-08-01T18:25:34;4.70;;;2.10;;
14316;SDS011;7242;50.858;6.586;2023-08-01T18:28:36;5.43;;;2.00;;
14316;SDS011;7242;50.858;6.586;2023-08-01T18:31:37;4.10;;;1.97;;
14316;SDS011;7242;50.858;6.586;2023-08-01T18:34:39;7.57;;;2.50;;